sensor_id;sensor_type;location;lat;lon;timestamp;temperature;humidity
14409;DHT22;7289;50.706;4.992;2022-10-30T00:00:42;15.30;99.90
14409;DHT22;7289;50.706;4.992;2022-10-30T00:03:11;15.20;99.90
14409;DHT22;7289;50.706;4.992;2022-10-30T00:05:41;15.10;99.90
14409;DHT22;7289;50.706;4.992;2022-10-30T00:08:11;15.00;99.90
14409;DHT22;7289;50.706;4.992;2022-10-30T00:10:41;15.00;99.90
14409;DHT22;7289;50.706;4.992;2022-10-30T00:13:11;15.00;99.90
14409;DHT22;7289;50.706;4.992;2022-10-30T00:15:47;14.90;99.90
14409;DHT22;7289;50.706;4.992;2022-10-30T00:18:15;14.90;99.90
14409;DHT22;7289;50.706;4.992;2022-10-30T00:20:43;14.80;99.90
14409;DHT22;7289;50.706;4.992;2022-10-30T00:23:12;14.70;99.90
14409;DHT22;7289;50.706;4.992;2022-10-30T00:25:40;14.70;99.90
14409;DHT22;7289;50.706;4.992;2022-10-30T00:28:08;14.70;99.90
14409;DHT22;7289;50.706;4.992;2022-10-30T00:30:37;14.60;99.90
14409;DHT22;7289;50.706;4.992;2022-10-30T00:33:06;14.50;99.90
14409;DHT22;7289;50.706;4.992;2022-10-30T00:35:35;14.50;99.90
14409;DHT22;7289;50.706;4.992;2022-10-30T00:38:03;14.50;99.90
14409;DHT22;7289;50.706;4.992;2022-10-30T00:40:31;14.40;99.90
14409;DHT22;7289;50.706;4.992;2022-10-30T00:42:59;14.30;99.90
14409;DHT22;7289;50.706;4.992;2022-10-30T00:45:28;14.20;99.90
14409;DHT22;7289;50.706;4.992;2022-10-30T00:47:59;14.20;99.90
14409;DHT22;7289;50.706;4.992;2022-10-30T00:50:32;14.10;99.90
14409;DHT22;7289;50.706;4.992;2022-10-30T00:53:05;14.10;99.90
14409;DHT22;7289;50.706;4.992;2022-10-30T00:55:36;14.10;99.90
14409;DHT22;7289;50.706;4.992;2022-10-30T00:58:08;14.10;99.90
14409;DHT22;7289;50.706;4.992;2022-10-30T01:00:38;14.00;99.90
14409;DHT22;7289;50.706;4.992;2022-10-30T01:03:08;14.00;99.90
14409;DHT22;7289;50.706;4.992;2022-10-30T01:05:39;14.00;99.90
14409;DHT22;7289;50.706;4.992;2022-10-30T01:08:07;14.00;99.90
14409;DHT22;7289;50.706;4.992;2022-10-30T01:10:35;14.00;99.90
14409;DHT22;7289;50.706;4.992;2022-10-30T01:13:05;13.90;99.90
14409;DHT22;7289;50.706;4.992;2022-10-30T01:15:37;13.90;99.90
14409;DHT22;7289;50.706;4.992;2022-10-30T01:18:25;13.90;99.90
14409;DHT22;7289;50.706;4.992;2022-10-30T01:21:09;13.90;99.90
14409;DHT22;7289;50.706;4.992;2022-10-30T01:23:49;13.90;99.90
14409;DHT22;7289;50.706;4.992;2022-10-30T01:26:28;13.90;99.90
14409;DHT22;7289;50.706;4.992;2022-10-30T01:29:18;13.90;99.90
14409;DHT22;7289;50.706;4.992;2022-10-30T01:32:03;13.90;99.90
14409;DHT22;7289;50.706;4.992;2022-10-30T01:34:43;13.90;99.90
14409;DHT22;7289;50.706;4.992;2022-10-30T01:37:19;13.90;99.90
14409;DHT22;7289;50.706;4.992;2022-10-30T01:39:50;13.80;99.90
14409;DHT22;7289;50.706;4.992;2022-10-30T01:42:42;13.90;99.90
14409;DHT22;7289;50.706;4.992;2022-10-30T01:45:18;13.90;99.90
14409;DHT22;7289;50.706;4.992;2022-10-30T01:48:05;13.90;99.90
14409;DHT22;7289;50.706;4.992;2022-10-30T01:50:47;13.90;99.90
14409;DHT22;7289;50.706;4.992;2022-10-30T01:53:28;13.90;99.90
14409;DHT22;7289;50.706;4.992;2022-10-30T01:56:14;13.90;99.90
14409;DHT22;7289;50.706;4.992;2022-10-30T01:58:49;13.90;99.90
14409;DHT22;7289;50.706;4.992;2022-10-30T02:01:23;14.00;99.90
14409;DHT22;7289;50.706;4.992;2022-10-30T02:03:52;14.00;99.90
14409;DHT22;7289;50.706;4.992;2022-10-30T02:06:22;14.00;99.90
14409;DHT22;7289;50.706;4.992;2022-10-30T02:08:54;14.00;99.90
14409;DHT22;7289;50.706;4.992;2022-10-30T02:11:22;14.00;99.90
14409;DHT22;7289;50.706;4.992;2022-10-30T02:13:54;14.00;99.90
14409;DHT22;7289;50.706;4.992;2022-10-30T02:16:23;14.00;99.90
14409;DHT22;7289;50.706;4.992;2022-10-30T02:18:51;14.10;99.90
14409;DHT22;7289;50.706;4.992;2022-10-30T02:21:21;14.00;99.90
14409;DHT22;7289;50.706;4.992;2022-10-30T02:23:49;14.00;99.90
14409;DHT22;7289;50.706;4.992;2022-10-30T02:26:17;14.00;99.90
14409;DHT22;7289;50.706;4.992;2022-10-30T02:28:46;14.00;99.90
14409;DHT22;7289;50.706;4.992;2022-10-30T02:31:14;14.00;99.90
14409;DHT22;7289;50.706;4.992;2022-10-30T02:33:44;14.00;99.90
14409;DHT22;7289;50.706;4.992;2022-10-30T02:36:12;14.00;99.90
14409;DHT22;7289;50.706;4.992;2022-10-30T02:38:43;14.00;99.90
14409;DHT22;7289;50.706;4.992;2022-10-30T02:41:12;14.10;99.90
14409;DHT22;7289;50.706;4.992;2022-10-30T02:43:41;14.10;99.90
14409;DHT22;7289;50.706;4.992;2022-10-30T02:46:09;14.10;99.90
14409;DHT22;7289;50.706;4.992;2022-10-30T02:48:37;14.20;99.90
14409;DHT22;7289;50.706;4.992;2022-10-30T02:51:07;14.10;99.90
14409;DHT22;7289;50.706;4.992;2022-10-30T02:53:37;14.10;99.90
14409;DHT22;7289;50.706;4.992;2022-10-30T02:56:11;14.20;99.90
14409;DHT22;7289;50.706;4.992;2022-10-30T02:58:41;14.20;99.90
14409;DHT22;7289;50.706;4.992;2022-10-30T03:01:11;14.20;99.90
14409;DHT22;7289;50.706;4.992;2022-10-30T03:03:40;14.30;99.90
14409;DHT22;7289;50.706;4.992;2022-10-30T03:06:12;14.30;99.90
14409;DHT22;7289;50.706;4.992;2022-10-30T03:08:42;14.20;99.90
14409;DHT22;7289;50.706;4.992;2022-10-30T03:11:13;14.20;99.90
14409;DHT22;7289;50.706;4.992;2022-10-30T03:13:43;14.20;99.90
14409;DHT22;7289;50.706;4.992;2022-10-30T03:16:13;14.20;99.90
14409;DHT22;7289;50.706;4.992;2022-10-30T03:18:43;14.20;99.90
14409;DHT22;7289;50.706;4.992;2022-10-30T03:21:13;14.20;99.90
14409;DHT22;7289;50.706;4.992;2022-10-30T03:23:43;14.20;99.90
14409;DHT22;7289;50.706;4.992;2022-10-30T03:26:13;14.10;99.90
14409;DHT22;7289;50.706;4.992;2022-10-30T03:28:48;14.20;99.90
14409;DHT22;7289;50.706;4.992;2022-10-30T03:31:17;14.10;99.90
14409;DHT22;7289;50.706;4.992;2022-10-30T03:33:51;14.10;99.90
14409;DHT22;7289;50.706;4.992;2022-10-30T03:36:20;14.10;99.90
14409;DHT22;7289;50.706;4.992;2022-10-30T03:38:49;14.10;99.90
14409;DHT22;7289;50.706;4.992;2022-10-30T03:41:20;14.10;99.90
14409;DHT22;7289;50.706;4.992;2022-10-30T03:43:48;14.00;99.90
14409;DHT22;7289;50.706;4.992;2022-10-30T03:46:17;14.00;99.90
14409;DHT22;7289;50.706;4.992;2022-10-30T03:48:48;14.00;99.90
14409;DHT22;7289;50.706;4.992;2022-10-30T03:51:16;13.90;99.90
14409;DHT22;7289;50.706;4.992;2022-10-30T03:53:46;13.90;99.90
14409;DHT22;7289;50.706;4.992;2022-10-30T03:56:14;13.90;99.90
14409;DHT22;7289;50.706;4.992;2022-10-30T03:58:48;13.80;99.90
14409;DHT22;7289;50.706;4.992;2022-10-30T04:01:20;13.80;99.90
14409;DHT22;7289;50.706;4.992;2022-10-30T04:03:54;13.80;99.90
14409;DHT22;7289;50.706;4.992;2022-10-30T04:06:24;13.80;99.90
14409;DHT22;7289;50.706;4.992;2022-10-30T04:08:53;13.70;99.90
14409;DHT22;7289;50.706;4.992;2022-10-30T04:11:22;13.70;99.90
14409;DHT22;7289;50.706;4.992;2022-10-30T04:13:52;13.60;99.90
14409;DHT22;7289;50.706;4.992;2022-10-30T04:16:21;13.60;99.90
14409;DHT22;7289;50.706;4.992;2022-10-30T04:18:50;13.60;99.90
14409;DHT22;7289;50.706;4.992;2022-10-30T04:21:18;13.60;99.90
14409;DHT22;7289;50.706;4.992;2022-10-30T04:23:48;13.50;99.90
14409;DHT22;7289;50.706;4.992;2022-10-30T04:26:20;13.50;99.90
14409;DHT22;7289;50.706;4.992;2022-10-30T04:28:48;13.50;99.90
14409;DHT22;7289;50.706;4.992;2022-10-30T04:31:18;13.50;99.90
14409;DHT22;7289;50.706;4.992;2022-10-30T04:33:46;13.50;99.90
14409;DHT22;7289;50.706;4.992;2022-10-30T04:36:14;13.50;99.90
14409;DHT22;7289;50.706;4.992;2022-10-30T04:38:45;13.40;99.90
14409;DHT22;7289;50.706;4.992;2022-10-30T04:41:13;13.40;99.90
14409;DHT22;7289;50.706;4.992;2022-10-30T04:43:57;13.40;99.90
14409;DHT22;7289;50.706;4.992;2022-10-30T04:46:32;13.30;99.90
14409;DHT22;7289;50.706;4.992;2022-10-30T04:49:06;13.30;99.90
14409;DHT22;7289;50.706;4.992;2022-10-30T04:51:35;13.30;99.90
14409;DHT22;7289;50.706;4.992;2022-10-30T04:54:05;13.30;99.90
14409;DHT22;7289;50.706;4.992;2022-10-30T04:56:37;13.30;99.90
14409;DHT22;7289;50.706;4.992;2022-10-30T04:59:05;13.20;99.90
14409;DHT22;7289;50.706;4.992;2022-10-30T05:01:34;13.20;99.90
14409;DHT22;7289;50.706;4.992;2022-10-30T05:04:05;13.20;99.90
14409;DHT22;7289;50.706;4.992;2022-10-30T05:06:34;13.20;99.90
14409;DHT22;7289;50.706;4.992;2022-10-30T05:09:02;13.10;99.90
14409;DHT22;7289;50.706;4.992;2022-10-30T05:11:37;13.10;99.90
14409;DHT22;7289;50.706;4.992;2022-10-30T05:14:07;13.10;99.90
14409;DHT22;7289;50.706;4.992;2022-10-30T05:16:38;13.00;99.90
14409;DHT22;7289;50.706;4.992;2022-10-30T05:19:07;13.00;99.90
14409;DHT22;7289;50.706;4.992;2022-10-30T05:21:35;13.00;99.90
14409;DHT22;7289;50.706;4.992;2022-10-30T05:24:04;12.90;99.90
14409;DHT22;7289;50.706;4.992;2022-10-30T05:26:41;12.90;99.90
14409;DHT22;7289;50.706;4.992;2022-10-30T05:29:11;12.90;99.90
14409;DHT22;7289;50.706;4.992;2022-10-30T05:31:41;12.80;99.90
14409;DHT22;7289;50.706;4.992;2022-10-30T05:34:15;12.90;99.90
14409;DHT22;7289;50.706;4.992;2022-10-30T05:36:46;12.90;99.90
14409;DHT22;7289;50.706;4.992;2022-10-30T05:39:15;12.80;99.90
14409;DHT22;7289;50.706;4.992;2022-10-30T05:41:46;12.80;99.90
14409;DHT22;7289;50.706;4.992;2022-10-30T05:44:16;12.70;99.90
14409;DHT22;7289;50.706;4.992;2022-10-30T05:47:06;12.70;99.90
14409;DHT22;7289;50.706;4.992;2022-10-30T05:49:35;12.60;99.90
14409;DHT22;7289;50.706;4.992;2022-10-30T05:52:08;12.50;99.90
14409;DHT22;7289;50.706;4.992;2022-10-30T05:54:37;12.50;99.90
14409;DHT22;7289;50.706;4.992;2022-10-30T05:57:13;12.40;99.90
14409;DHT22;7289;50.706;4.992;2022-10-30T05:59:43;12.40;99.90
14409;DHT22;7289;50.706;4.992;2022-10-30T06:02:12;12.40;99.90
14409;DHT22;7289;50.706;4.992;2022-10-30T06:04:41;12.40;99.90
14409;DHT22;7289;50.706;4.992;2022-10-30T06:07:12;12.30;99.90
14409;DHT22;7289;50.706;4.992;2022-10-30T06:09:40;12.30;99.90
14409;DHT22;7289;50.706;4.992;2022-10-30T06:12:27;12.20;99.90
14409;DHT22;7289;50.706;4.992;2022-10-30T06:15:28;12.20;99.90
14409;DHT22;7289;50.706;4.992;2022-10-30T06:17:58;12.20;99.90
14409;DHT22;7289;50.706;4.992;2022-10-30T06:20:38;12.10;99.90
14409;DHT22;7289;50.706;4.992;2022-10-30T06:23:25;12.10;99.90
14409;DHT22;7289;50.706;4.992;2022-10-30T06:26:07;12.00;99.90
14409;DHT22;7289;50.706;4.992;2022-10-30T06:28:50;12.00;99.90
14409;DHT22;7289;50.706;4.992;2022-10-30T06:31:18;12.00;99.90
14409;DHT22;7289;50.706;4.992;2022-10-30T06:33:52;12.00;99.90
14409;DHT22;7289;50.706;4.992;2022-10-30T06:36:21;12.00;99.90
14409;DHT22;7289;50.706;4.992;2022-10-30T06:38:49;12.00;99.90
14409;DHT22;7289;50.706;4.992;2022-10-30T06:41:21;12.00;99.90
14409;DHT22;7289;50.706;4.992;2022-10-30T06:44:14;12.00;99.90
14409;DHT22;7289;50.706;4.992;2022-10-30T06:46:42;12.00;99.90
14409;DHT22;7289;50.706;4.992;2022-10-30T06:49:12;12.00;99.90
14409;DHT22;7289;50.706;4.992;2022-10-30T06:51:41;12.00;99.90
14409;DHT22;7289;50.706;4.992;2022-10-30T06:54:10;12.00;99.90
14409;DHT22;7289;50.706;4.992;2022-10-30T06:56:38;12.00;99.90
14409;DHT22;7289;50.706;4.992;2022-10-30T06:59:07;12.10;99.90
14409;DHT22;7289;50.706;4.992;2022-10-30T07:01:45;12.10;99.90
14409;DHT22;7289;50.706;4.992;2022-10-30T07:04:17;12.10;99.90
14409;DHT22;7289;50.706;4.992;2022-10-30T07:06:45;12.20;99.90
14409;DHT22;7289;50.706;4.992;2022-10-30T07:09:14;12.20;99.90
14409;DHT22;7289;50.706;4.992;2022-10-30T07:11:42;12.30;99.90
14409;DHT22;7289;50.706;4.992;2022-10-30T07:14:23;12.30;99.90
14409;DHT22;7289;50.706;4.992;2022-10-30T07:17:14;12.30;99.90
14409;DHT22;7289;50.706;4.992;2022-10-30T07:19:51;12.40;99.90
14409;DHT22;7289;50.706;4.992;2022-10-30T07:22:19;12.50;99.90
14409;DHT22;7289;50.706;4.992;2022-10-30T07:24:51;12.50;99.90
14409;DHT22;7289;50.706;4.992;2022-10-30T07:27:28;12.60;99.90
14409;DHT22;7289;50.706;4.992;2022-10-30T07:30:10;12.70;99.90
14409;DHT22;7289;50.706;4.992;2022-10-30T07:33:09;12.80;99.90
14409;DHT22;7289;50.706;4.992;2022-10-30T07:36:01;12.90;99.90
14409;DHT22;7289;50.706;4.992;2022-10-30T07:38:44;13.00;99.90
14409;DHT22;7289;50.706;4.992;2022-10-30T07:41:26;13.10;99.90
14409;DHT22;7289;50.706;4.992;2022-10-30T07:44:14;13.20;99.90
14409;DHT22;7289;50.706;4.992;2022-10-30T07:47:03;13.30;99.90
14409;DHT22;7289;50.706;4.992;2022-10-30T07:50:04;13.50;99.90
14409;DHT22;7289;50.706;4.992;2022-10-30T07:52:34;13.60;99.90
14409;DHT22;7289;50.706;4.992;2022-10-30T07:55:03;13.70;99.90
14409;DHT22;7289;50.706;4.992;2022-10-30T07:57:47;13.90;99.90
14409;DHT22;7289;50.706;4.992;2022-10-30T08:00:50;14.00;99.90
14409;DHT22;7289;50.706;4.992;2022-10-30T08:03:27;14.30;99.90
14409;DHT22;7289;50.706;4.992;2022-10-30T08:06:10;14.40;99.90
14409;DHT22;7289;50.706;4.992;2022-10-30T08:08:40;14.60;99.90
14409;DHT22;7289;50.706;4.992;2022-10-30T08:11:25;14.80;99.90
14409;DHT22;7289;50.706;4.992;2022-10-30T08:13:54;15.00;99.90
14409;DHT22;7289;50.706;4.992;2022-10-30T08:16:22;15.20;99.90
14409;DHT22;7289;50.706;4.992;2022-10-30T08:18:51;15.30;99.90
14409;DHT22;7289;50.706;4.992;2022-10-30T08:21:23;15.30;99.90
14409;DHT22;7289;50.706;4.992;2022-10-30T08:24:13;15.50;99.90
14409;DHT22;7289;50.706;4.992;2022-10-30T08:26:45;15.70;99.90
14409;DHT22;7289;50.706;4.992;2022-10-30T08:29:13;15.90;99.90
14409;DHT22;7289;50.706;4.992;2022-10-30T08:31:43;15.90;99.90
14409;DHT22;7289;50.706;4.992;2022-10-30T08:34:31;16.10;99.90
14409;DHT22;7289;50.706;4.992;2022-10-30T08:37:05;16.30;99.90
14409;DHT22;7289;50.706;4.992;2022-10-30T08:39:35;16.50;99.90
14409;DHT22;7289;50.706;4.992;2022-10-30T08:42:22;16.70;99.90
14409;DHT22;7289;50.706;4.992;2022-10-30T08:44:54;16.90;99.90
14409;DHT22;7289;50.706;4.992;2022-10-30T08:47:25;17.10;99.90
14409;DHT22;7289;50.706;4.992;2022-10-30T08:49:55;17.20;99.90
14409;DHT22;7289;50.706;4.992;2022-10-30T08:52:27;17.30;99.90
14409;DHT22;7289;50.706;4.992;2022-10-30T08:54:57;17.40;99.90
14409;DHT22;7289;50.706;4.992;2022-10-30T08:57:26;17.70;99.90
14409;DHT22;7289;50.706;4.992;2022-10-30T08:59:56;17.80;99.90
14409;DHT22;7289;50.706;4.992;2022-10-30T09:02:50;18.10;99.90
14409;DHT22;7289;50.706;4.992;2022-10-30T09:05:36;18.30;99.90
14409;DHT22;7289;50.706;4.992;2022-10-30T09:08:17;18.40;99.90
14409;DHT22;7289;50.706;4.992;2022-10-30T09:11:05;18.60;99.90
14409;DHT22;7289;50.706;4.992;2022-10-30T09:13:33;18.70;99.90
14409;DHT22;7289;50.706;4.992;2022-10-30T09:16:04;18.80;99.90
14409;DHT22;7289;50.706;4.992;2022-10-30T09:18:35;18.70;99.90
14409;DHT22;7289;50.706;4.992;2022-10-30T09:21:04;18.70;99.90
14409;DHT22;7289;50.706;4.992;2022-10-30T09:23:45;18.80;99.90
14409;DHT22;7289;50.706;4.992;2022-10-30T09:26:33;18.90;99.90
14409;DHT22;7289;50.706;4.992;2022-10-30T09:29:09;18.90;99.90
14409;DHT22;7289;50.706;4.992;2022-10-30T09:31:43;18.90;99.90
14409;DHT22;7289;50.706;4.992;2022-10-30T09:34:16;18.90;99.90
14409;DHT22;7289;50.706;4.992;2022-10-30T09:36:49;18.80;99.90
14409;DHT22;7289;50.706;4.992;2022-10-30T09:39:18;18.80;99.90
14409;DHT22;7289;50.706;4.992;2022-10-30T09:44:59;18.80;99.90
14409;DHT22;7289;50.706;4.992;2022-10-30T09:47:56;18.80;99.90
14409;DHT22;7289;50.706;4.992;2022-10-30T09:50:39;18.70;99.90
14409;DHT22;7289;50.706;4.992;2022-10-30T09:53:17;18.70;99.90
14409;DHT22;7289;50.706;4.992;2022-10-30T09:55:50;18.70;99.90
14409;DHT22;7289;50.706;4.992;2022-10-30T09:58:31;18.60;99.90
14409;DHT22;7289;50.706;4.992;2022-10-30T10:01:10;18.70;99.90
14409;DHT22;7289;50.706;4.992;2022-10-30T10:03:58;18.70;99.90
14409;DHT22;7289;50.706;4.992;2022-10-30T10:06:43;18.80;99.90
14409;DHT22;7289;50.706;4.992;2022-10-30T10:09:18;19.00;99.90
14409;DHT22;7289;50.706;4.992;2022-10-30T10:12:30;19.10;99.90
14409;DHT22;7289;50.706;4.992;2022-10-30T10:15:08;19.30;99.90
14409;DHT22;7289;50.706;4.992;2022-10-30T10:17:40;19.40;99.90
14409;DHT22;7289;50.706;4.992;2022-10-30T10:20:15;19.50;99.90
14409;DHT22;7289;50.706;4.992;2022-10-30T10:22:47;19.60;99.90
14409;DHT22;7289;50.706;4.992;2022-10-30T10:25:18;19.80;99.90
14409;DHT22;7289;50.706;4.992;2022-10-30T10:28:04;19.90;99.90
14409;DHT22;7289;50.706;4.992;2022-10-30T10:30:41;20.00;99.90
14409;DHT22;7289;50.706;4.992;2022-10-30T10:33:37;20.00;99.80
14409;DHT22;7289;50.706;4.992;2022-10-30T10:36:22;20.10;99.50
14409;DHT22;7289;50.706;4.992;2022-10-30T10:39:15;20.30;99.40
14409;DHT22;7289;50.706;4.992;2022-10-30T10:41:56;20.40;99.70
14409;DHT22;7289;50.706;4.992;2022-10-30T10:44:33;20.50;99.60
14409;DHT22;7289;50.706;4.992;2022-10-30T10:47:24;20.60;99.60
14409;DHT22;7289;50.706;4.992;2022-10-30T10:50:09;20.70;99.60
14409;DHT22;7289;50.706;4.992;2022-10-30T10:52:45;20.90;99.50
14409;DHT22;7289;50.706;4.992;2022-10-30T10:55:16;21.00;99.20
14409;DHT22;7289;50.706;4.992;2022-10-30T10:57:46;21.10;99.00
14409;DHT22;7289;50.706;4.992;2022-10-30T11:00:17;21.20;99.10
14409;DHT22;7289;50.706;4.992;2022-10-30T11:02:53;21.30;98.20
14409;DHT22;7289;50.706;4.992;2022-10-30T11:05:29;21.40;98.30
14409;DHT22;7289;50.706;4.992;2022-10-30T11:08:08;21.50;98.10
14409;DHT22;7289;50.706;4.992;2022-10-30T11:10:38;21.60;97.70
14409;DHT22;7289;50.706;4.992;2022-10-30T11:13:08;21.80;98.30
14409;DHT22;7289;50.706;4.992;2022-10-30T11:15:45;21.90;97.60
14409;DHT22;7289;50.706;4.992;2022-10-30T11:18:16;21.90;97.50
14409;DHT22;7289;50.706;4.992;2022-10-30T11:20:52;22.10;97.80
14409;DHT22;7289;50.706;4.992;2022-10-30T11:23:33;22.20;97.50
14409;DHT22;7289;50.706;4.992;2022-10-30T11:26:28;22.30;97.50
14409;DHT22;7289;50.706;4.992;2022-10-30T11:29:00;22.50;96.60
14409;DHT22;7289;50.706;4.992;2022-10-30T11:31:35;22.80;96.30
14409;DHT22;7289;50.706;4.992;2022-10-30T11:34:24;23.00;95.70
14409;DHT22;7289;50.706;4.992;2022-10-30T11:36:56;23.20;95.40
14409;DHT22;7289;50.706;4.992;2022-10-30T11:39:25;23.50;95.90
14409;DHT22;7289;50.706;4.992;2022-10-30T11:41:57;23.60;95.10
14409;DHT22;7289;50.706;4.992;2022-10-30T11:44:29;23.60;94.90
14409;DHT22;7289;50.706;4.992;2022-10-30T11:46:58;23.70;94.70
14409;DHT22;7289;50.706;4.992;2022-10-30T11:49:36;23.60;93.80
14409;DHT22;7289;50.706;4.992;2022-10-30T11:52:07;23.70;94.30
14409;DHT22;7289;50.706;4.992;2022-10-30T11:54:38;23.80;93.70
14409;DHT22;7289;50.706;4.992;2022-10-30T11:57:18;23.90;93.30
14409;DHT22;7289;50.706;4.992;2022-10-30T11:59:49;24.00;92.50
14409;DHT22;7289;50.706;4.992;2022-10-30T12:02:23;24.00;92.60
14409;DHT22;7289;50.706;4.992;2022-10-30T12:05:00;24.10;92.50
14409;DHT22;7289;50.706;4.992;2022-10-30T12:07:30;24.10;92.20
14409;DHT22;7289;50.706;4.992;2022-10-30T12:09:59;24.10;92.30
14409;DHT22;7289;50.706;4.992;2022-10-30T12:12:38;24.10;92.30
14409;DHT22;7289;50.706;4.992;2022-10-30T12:15:18;24.10;92.70
14409;DHT22;7289;50.706;4.992;2022-10-30T12:17:50;24.20;93.20
14409;DHT22;7289;50.706;4.992;2022-10-30T12:20:20;24.20;92.60
14409;DHT22;7289;50.706;4.992;2022-10-30T12:22:49;24.20;92.80
14409;DHT22;7289;50.706;4.992;2022-10-30T12:25:22;24.20;92.70
14409;DHT22;7289;50.706;4.992;2022-10-30T12:27:57;24.00;93.10
14409;DHT22;7289;50.706;4.992;2022-10-30T12:30:27;24.00;92.10
14409;DHT22;7289;50.706;4.992;2022-10-30T12:33:02;23.80;92.10
14409;DHT22;7289;50.706;4.992;2022-10-30T12:35:41;23.80;92.40
14409;DHT22;7289;50.706;4.992;2022-10-30T12:38:14;23.80;92.30
14409;DHT22;7289;50.706;4.992;2022-10-30T12:40:51;23.80;92.20
14409;DHT22;7289;50.706;4.992;2022-10-30T12:43:25;23.80;92.90
14409;DHT22;7289;50.706;4.992;2022-10-30T12:45:59;23.90;93.70
14409;DHT22;7289;50.706;4.992;2022-10-30T12:48:34;23.90;93.30
14409;DHT22;7289;50.706;4.992;2022-10-30T12:51:15;24.10;92.40
14409;DHT22;7289;50.706;4.992;2022-10-30T12:53:53;24.20;92.40
14409;DHT22;7289;50.706;4.992;2022-10-30T12:56:29;24.30;92.50
14409;DHT22;7289;50.706;4.992;2022-10-30T12:59:08;24.40;92.80
14409;DHT22;7289;50.706;4.992;2022-10-30T13:01:44;24.40;92.50
14409;DHT22;7289;50.706;4.992;2022-10-30T13:04:16;24.40;92.60
14409;DHT22;7289;50.706;4.992;2022-10-30T13:06:50;24.40;91.60
14409;DHT22;7289;50.706;4.992;2022-10-30T13:09:24;24.40;91.70
14409;DHT22;7289;50.706;4.992;2022-10-30T13:11:58;24.30;91.20
14409;DHT22;7289;50.706;4.992;2022-10-30T13:14:33;24.30;91.10
14409;DHT22;7289;50.706;4.992;2022-10-30T13:17:02;24.20;91.00
14409;DHT22;7289;50.706;4.992;2022-10-30T13:19:30;24.10;91.10
14409;DHT22;7289;50.706;4.992;2022-10-30T13:22:04;24.00;91.10
14409;DHT22;7289;50.706;4.992;2022-10-30T13:24:44;24.00;91.20
14409;DHT22;7289;50.706;4.992;2022-10-30T13:27:16;24.00;91.00
14409;DHT22;7289;50.706;4.992;2022-10-30T13:29:53;24.10;91.70
14409;DHT22;7289;50.706;4.992;2022-10-30T13:32:34;24.10;92.30
14409;DHT22;7289;50.706;4.992;2022-10-30T13:35:16;24.10;91.50
14409;DHT22;7289;50.706;4.992;2022-10-30T13:37:52;24.10;91.50
14409;DHT22;7289;50.706;4.992;2022-10-30T13:40:29;24.20;92.20
14409;DHT22;7289;50.706;4.992;2022-10-30T13:43:07;24.30;91.90
14409;DHT22;7289;50.706;4.992;2022-10-30T13:48:57;24.50;91.20
14409;DHT22;7289;50.706;4.992;2022-10-30T13:51:34;24.60;91.80
14409;DHT22;7289;50.706;4.992;2022-10-30T13:54:12;24.40;90.80
14409;DHT22;7289;50.706;4.992;2022-10-30T13:56:43;24.30;90.50
14409;DHT22;7289;50.706;4.992;2022-10-30T14:03:03;23.90;89.20
14409;DHT22;7289;50.706;4.992;2022-10-30T14:05:37;23.80;90.20
14409;DHT22;7289;50.706;4.992;2022-10-30T14:08:15;23.70;90.00
14409;DHT22;7289;50.706;4.992;2022-10-30T14:10:51;23.60;90.50
14409;DHT22;7289;50.706;4.992;2022-10-30T14:13:28;23.40;91.00
14409;DHT22;7289;50.706;4.992;2022-10-30T14:16:00;23.20;91.00
14409;DHT22;7289;50.706;4.992;2022-10-30T14:18:41;23.00;91.00
14409;DHT22;7289;50.706;4.992;2022-10-30T14:21:33;22.80;91.60
14409;DHT22;7289;50.706;4.992;2022-10-30T14:24:09;22.60;91.80
14409;DHT22;7289;50.706;4.992;2022-10-30T14:26:43;22.50;92.00
14409;DHT22;7289;50.706;4.992;2022-10-30T14:29:42;22.20;92.40
14409;DHT22;7289;50.706;4.992;2022-10-30T14:35:36;22.10;93.30
14409;DHT22;7289;50.706;4.992;2022-10-30T14:38:26;22.10;93.60
14409;DHT22;7289;50.706;4.992;2022-10-30T14:44:35;22.20;93.50
14409;DHT22;7289;50.706;4.992;2022-10-30T14:47:42;22.30;93.20
14409;DHT22;7289;50.706;4.992;2022-10-30T14:50:18;22.50;93.50
14409;DHT22;7289;50.706;4.992;2022-10-30T14:53:01;22.50;93.70
14409;DHT22;7289;50.706;4.992;2022-10-30T14:55:34;22.60;93.70
14409;DHT22;7289;50.706;4.992;2022-10-30T14:58:16;22.40;93.70
14409;DHT22;7289;50.706;4.992;2022-10-30T15:00:47;22.40;94.00
14409;DHT22;7289;50.706;4.992;2022-10-30T15:03:26;22.30;94.30
14409;DHT22;7289;50.706;4.992;2022-10-30T15:06:02;22.20;94.40
14409;DHT22;7289;50.706;4.992;2022-10-30T15:09:00;22.10;94.60
14409;DHT22;7289;50.706;4.992;2022-10-30T15:11:45;22.00;94.90
14409;DHT22;7289;50.706;4.992;2022-10-30T15:14:25;22.00;95.40
14409;DHT22;7289;50.706;4.992;2022-10-30T15:17:18;21.80;95.50
14409;DHT22;7289;50.706;4.992;2022-10-30T15:19:50;21.60;95.60
14409;DHT22;7289;50.706;4.992;2022-10-30T15:22:19;21.50;95.80
14409;DHT22;7289;50.706;4.992;2022-10-30T15:24:49;21.50;96.10
14409;DHT22;7289;50.706;4.992;2022-10-30T15:27:20;21.40;96.20
14409;DHT22;7289;50.706;4.992;2022-10-30T15:29:50;21.30;96.40
14409;DHT22;7289;50.706;4.992;2022-10-30T15:32:22;21.30;96.60
14409;DHT22;7289;50.706;4.992;2022-10-30T15:34:52;21.10;96.70
14409;DHT22;7289;50.706;4.992;2022-10-30T15:37:21;21.10;96.70
14409;DHT22;7289;50.706;4.992;2022-10-30T15:40:02;21.00;96.70
14409;DHT22;7289;50.706;4.992;2022-10-30T15:42:36;21.00;96.80
14409;DHT22;7289;50.706;4.992;2022-10-30T15:45:08;20.80;96.90
14409;DHT22;7289;50.706;4.992;2022-10-30T15:47:44;20.70;97.10
14409;DHT22;7289;50.706;4.992;2022-10-30T15:50:14;20.70;97.30
14409;DHT22;7289;50.706;4.992;2022-10-30T15:52:43;20.60;97.40
14409;DHT22;7289;50.706;4.992;2022-10-30T15:55:15;20.50;97.70
14409;DHT22;7289;50.706;4.992;2022-10-30T15:57:46;20.50;97.80
14409;DHT22;7289;50.706;4.992;2022-10-30T16:00:32;20.50;97.80
14409;DHT22;7289;50.706;4.992;2022-10-30T16:03:04;20.40;98.00
14409;DHT22;7289;50.706;4.992;2022-10-30T16:05:34;20.30;98.10
14409;DHT22;7289;50.706;4.992;2022-10-30T16:08:08;20.30;98.20
14409;DHT22;7289;50.706;4.992;2022-10-30T16:10:44;20.30;98.20
14409;DHT22;7289;50.706;4.992;2022-10-30T16:13:16;20.10;98.40
14409;DHT22;7289;50.706;4.992;2022-10-30T16:15:45;20.10;98.60
14409;DHT22;7289;50.706;4.992;2022-10-30T16:18:18;20.10;98.40
14409;DHT22;7289;50.706;4.992;2022-10-30T16:20:49;20.00;98.50
14409;DHT22;7289;50.706;4.992;2022-10-30T16:23:18;19.90;98.70
14409;DHT22;7289;50.706;4.992;2022-10-30T16:25:52;19.80;99.00
14409;DHT22;7289;50.706;4.992;2022-10-30T16:28:25;19.70;99.10
14409;DHT22;7289;50.706;4.992;2022-10-30T16:30:56;19.70;99.10
14409;DHT22;7289;50.706;4.992;2022-10-30T16:33:29;19.60;99.20
14409;DHT22;7289;50.706;4.992;2022-10-30T16:35:59;19.40;99.50
14409;DHT22;7289;50.706;4.992;2022-10-30T16:38:32;19.30;99.70
14409;DHT22;7289;50.706;4.992;2022-10-30T16:41:00;19.20;99.80
14409;DHT22;7289;50.706;4.992;2022-10-30T16:43:33;19.10;99.90
14409;DHT22;7289;50.706;4.992;2022-10-30T16:46:31;19.00;99.90
14409;DHT22;7289;50.706;4.992;2022-10-30T16:49:05;18.90;99.90